createdAt,value
2022-11-30T00:00:48.313Z,1022.46
2022-11-30T00:01:49.711Z,1022.46
2022-11-30T00:02:49.924Z,1022.46
2022-11-30T00:03:48.225Z,1022.45
2022-11-30T00:04:50.413Z,1022.45
2022-11-30T00:05:48.796Z,1022.49
2022-11-30T00:06:49.102Z,1022.49
2022-11-30T00:07:49.467Z,1022.47
2022-11-30T00:08:51.595Z,1022.48
2022-11-30T00:09:49.977Z,1022.50
2022-11-30T00:10:50.295Z,1022.46
2022-11-30T00:11:50.587Z,1022.53
2022-11-30T00:12:50.895Z,1022.54
2022-11-30T00:13:53.081Z,1022.55
2022-11-30T00:14:53.278Z,1022.53
2022-11-30T00:15:51.786Z,1022.55
2022-11-30T00:16:52.120Z,1022.57
2022-11-30T00:17:52.422Z,1022.60
2022-11-30T00:18:54.608Z,1022.58
2022-11-30T00:19:52.990Z,1022.60
2022-11-30T00:20:53.299Z,1022.62
2022-11-30T00:21:53.601Z,1022.65
2022-11-30T00:22:55.784Z,1022.66
2022-11-30T00:23:54.163Z,1022.69
2022-11-30T00:24:54.473Z,1022.64
2022-11-30T00:25:56.656Z,1022.66
2022-11-30T00:26:55.041Z,1022.67
2022-11-30T00:27:55.339Z,1022.68
2022-11-30T00:28:57.530Z,1022.71
2022-11-30T00:29:55.905Z,1022.69
2022-11-30T00:30:56.269Z,1022.74
2022-11-30T00:31:56.548Z,1022.72
2022-11-30T00:32:56.871Z,1022.77
2022-11-30T00:33:59.047Z,1022.73
2022-11-30T00:34:57.430Z,1022.77
2022-11-30T00:35:59.592Z,1022.76
2022-11-30T00:36:58.763Z,1022.74
2022-11-30T00:37:59.944Z,1022.73
2022-11-30T00:39:00.150Z,1022.73
2022-11-30T00:40:00.843Z,1022.72
2022-11-30T00:41:01.134Z,1022.74
2022-11-30T00:42:02.720Z,1022.70
2022-11-30T00:43:01.392Z,1022.71
2022-11-30T00:44:01.560Z,1022.72
2022-11-30T00:45:02.264Z,1022.68
2022-11-30T00:46:02.476Z,1022.72
2022-11-30T00:47:02.654Z,1022.68
2022-11-30T00:48:02.859Z,1022.70
2022-11-30T00:49:01.618Z,1022.69
2022-11-30T00:50:03.803Z,1022.66
2022-11-30T00:51:02.197Z,1022.69
2022-11-30T00:52:02.490Z,1022.67
2022-11-30T00:53:04.688Z,1022.68
2022-11-30T00:54:03.068Z,1022.70
2022-11-30T00:55:05.261Z,1022.71
2022-11-30T00:56:03.646Z,1022.68
2022-11-30T00:57:03.954Z,1022.68
2022-11-30T00:58:06.132Z,1022.71
2022-11-30T00:59:04.518Z,1022.68
2022-11-30T01:00:04.826Z,1022.69
2022-11-30T01:01:05.173Z,1022.73
2022-11-30T01:02:05.543Z,1022.72
2022-11-30T01:03:07.676Z,1022.69
2022-11-30T01:04:06.058Z,1022.70
2022-11-30T01:05:06.370Z,1022.72
2022-11-30T01:06:06.673Z,1022.71
2022-11-30T01:07:06.988Z,1022.74
2022-11-30T01:08:09.180Z,1022.76
2022-11-30T01:09:09.371Z,1022.73
2022-11-30T01:10:09.560Z,1022.75
2022-11-30T01:11:09.766Z,1022.79
2022-11-30T01:12:10.458Z,1022.79
2022-11-30T01:13:10.632Z,1022.78
2022-11-30T01:14:10.809Z,1022.76
2022-11-30T01:15:11.007Z,1022.78
2022-11-30T01:16:11.778Z,1022.82
2022-11-30T01:17:10.076Z,1022.79
2022-11-30T01:18:12.258Z,1022.80
2022-11-30T01:19:12.449Z,1022.86
2022-11-30T01:20:12.610Z,1022.83
2022-11-30T01:21:12.798Z,1022.86
2022-11-30T01:22:11.550Z,1022.89
2022-11-30T01:23:13.741Z,1022.87
2022-11-30T01:24:13.922Z,1022.90
2022-11-30T01:25:14.083Z,1022.91
2022-11-30T01:26:14.275Z,1022.88
2022-11-30T01:27:14.942Z,1022.88
2022-11-30T01:28:15.133Z,1022.91
2022-11-30T01:29:15.314Z,1022.89
2022-11-30T01:30:13.938Z,1022.93
2022-11-30T01:31:16.218Z,1022.90
2022-11-30T01:32:14.583Z,1022.90
2022-11-30T01:33:16.774Z,1022.92
2022-11-30T01:34:16.952Z,1022.96
2022-11-30T01:35:15.451Z,1022.88
2022-11-30T01:36:15.753Z,1022.92
2022-11-30T01:37:16.059Z,1022.94
2022-11-30T01:38:16.366Z,1022.93
2022-11-30T01:39:18.558Z,1022.94
2022-11-30T01:40:16.944Z,1022.95
2022-11-30T01:41:19.139Z,1022.97
2022-11-30T01:42:17.523Z,1022.94
2022-11-30T01:43:17.844Z,1022.94
2022-11-30T01:44:20.437Z,1022.96
2022-11-30T01:45:20.214Z,1022.91
2022-11-30T01:46:18.827Z,1022.94
2022-11-30T01:47:19.050Z,1022.92
2022-11-30T01:48:21.161Z,1022.88
2022-11-30T01:49:19.562Z,1022.88
2022-11-30T01:50:19.860Z,1022.89
2022-11-30T01:51:22.055Z,1022.87
2022-11-30T01:52:20.437Z,1022.86
2022-11-30T01:53:22.621Z,1022.85
2022-11-30T01:54:21.003Z,1022.86
2022-11-30T01:55:23.219Z,1022.84
2022-11-30T01:56:21.584Z,1022.85
2022-11-30T01:57:21.893Z,1022.87
2022-11-30T01:58:23.158Z,1022.84
2022-11-30T01:59:22.530Z,1022.88
2022-11-30T02:00:24.708Z,1022.84
2022-11-30T02:01:24.105Z,1022.85
2022-11-30T02:02:25.297Z,1022.89
2022-11-30T02:03:25.443Z,1022.92
2022-11-30T02:04:23.946Z,1022.85
2022-11-30T02:05:26.136Z,1022.89
2022-11-30T02:06:24.515Z,1022.89
2022-11-30T02:07:24.896Z,1022.88
2022-11-30T02:08:25.207Z,1022.90
2022-11-30T02:09:25.372Z,1022.87
2022-11-30T02:10:27.565Z,1022.90
2022-11-30T02:11:25.946Z,1022.88
2022-11-30T02:12:26.252Z,1022.92
2022-11-30T02:13:26.567Z,1022.91
2022-11-30T02:14:26.880Z,1022.95
2022-11-30T02:15:29.165Z,1022.94
2022-11-30T02:16:27.499Z,1022.94
2022-11-30T02:17:27.777Z,1022.95
2022-11-30T02:18:29.958Z,1023.02
2022-11-30T02:19:30.130Z,1022.97
2022-11-30T02:20:30.320Z,1023.04
2022-11-30T02:21:30.526Z,1022.99
2022-11-30T02:22:29.277Z,1023.04
2022-11-30T02:23:33.425Z,1022.99
2022-11-30T02:24:32.666Z,1023.05
2022-11-30T02:25:30.196Z,1023.02
2022-11-30T02:26:30.515Z,1023.00
2022-11-30T02:27:30.752Z,1023.00
2022-11-30T02:28:31.018Z,1022.99
2022-11-30T02:29:33.203Z,1023.00
2022-11-30T02:30:31.596Z,1023.00
2022-11-30T02:31:31.908Z,1023.03
2022-11-30T02:32:32.217Z,1023.04
2022-11-30T02:33:32.531Z,1023.06
2022-11-30T02:34:34.709Z,1023.05
2022-11-30T02:35:33.114Z,1023.08
2022-11-30T02:36:35.283Z,1023.08
2022-11-30T02:37:33.888Z,1023.10
2022-11-30T02:38:33.969Z,1023.15
2022-11-30T02:39:36.157Z,1023.13
2022-11-30T02:40:34.542Z,1023.10
2022-11-30T02:41:37.848Z,1023.11
2022-11-30T02:42:37.765Z,1023.11
2022-11-30T02:43:37.279Z,1023.11
2022-11-30T02:44:37.655Z,1023.08
2022-11-30T02:45:37.844Z,1023.13
2022-11-30T02:46:38.037Z,1023.18
2022-11-30T02:47:38.186Z,1023.14
2022-11-30T02:48:38.347Z,1023.14
2022-11-30T02:49:39.035Z,1023.13
2022-11-30T02:50:39.279Z,1023.14
2022-11-30T02:51:39.416Z,1023.12
2022-11-30T02:52:39.599Z,1023.12
2022-11-30T02:53:38.231Z,1023.09
2022-11-30T02:54:40.420Z,1023.08
2022-11-30T02:55:40.592Z,1023.11
2022-11-30T02:56:40.774Z,1023.09
2022-11-30T02:57:40.955Z,1023.12
2022-11-30T02:58:41.633Z,1023.06
2022-11-30T02:59:41.841Z,1023.03
2022-11-30T03:00:42.098Z,1023.07
2022-11-30T03:01:43.775Z,1023.05
2022-11-30T03:02:42.969Z,1023.04
2022-11-30T03:03:43.096Z,1023.05
2022-11-30T03:04:43.351Z,1023.01
2022-11-30T03:05:41.756Z,1023.05
2022-11-30T03:06:42.075Z,1023.00
2022-11-30T03:07:42.401Z,1023.03
2022-11-30T03:08:44.579Z,1023.01
2022-11-30T03:09:42.972Z,1023.00
2022-11-30T03:10:45.135Z,1023.04
2022-11-30T03:11:44.508Z,1023.01
2022-11-30T03:12:43.762Z,1023.04
2022-11-30T03:13:45.961Z,1022.99
2022-11-30T03:14:46.337Z,1022.99
2022-11-30T03:15:46.399Z,1022.97
2022-11-30T03:16:46.556Z,1022.99
2022-11-30T03:17:46.744Z,1023.03
2022-11-30T03:18:47.441Z,1023.00
2022-11-30T03:19:47.619Z,1023.00
2022-11-30T03:20:47.822Z,1023.04
2022-11-30T03:21:46.461Z,1023.04
2022-11-30T03:22:48.653Z,1023.05
2022-11-30T03:23:48.833Z,1023.02
2022-11-30T03:24:47.772Z,1023.02
2022-11-30T03:25:49.525Z,1023.06
2022-11-30T03:26:47.911Z,1023.04
2022-11-30T03:27:48.369Z,1023.04
2022-11-30T03:28:50.415Z,1023.04
2022-11-30T03:29:50.591Z,1023.04
2022-11-30T03:30:49.157Z,1023.03
2022-11-30T03:31:51.288Z,1023.03
2022-11-30T03:32:49.681Z,1023.05
2022-11-30T03:33:49.994Z,1023.05
2022-11-30T03:34:52.197Z,1023.06
2022-11-30T03:35:50.572Z,1023.04
2022-11-30T03:36:50.886Z,1023.02
2022-11-30T03:37:51.184Z,1023.05
2022-11-30T03:38:51.496Z,1023.06
2022-11-30T03:39:57.920Z,1023.03
2022-11-30T03:40:52.177Z,1023.04
2022-11-30T03:41:52.473Z,1023.04
2022-11-30T03:42:52.784Z,1023.04
2022-11-30T03:43:53.084Z,1023.06
2022-11-30T03:44:54.624Z,1023.06
2022-11-30T03:45:53.620Z,1023.04
2022-11-30T03:46:53.978Z,1023.09
2022-11-30T03:47:56.114Z,1023.04
2022-11-30T03:48:54.501Z,1023.04
2022-11-30T03:49:54.815Z,1023.08
2022-11-30T03:50:57.006Z,1023.08
2022-11-30T03:51:56.341Z,1023.05
2022-11-30T03:52:57.573Z,1023.08
2022-11-30T03:53:55.955Z,1023.09
2022-11-30T03:54:56.264Z,1023.05
2022-11-30T03:55:57.420Z,1023.08
2022-11-30T03:56:56.915Z,1023.02
2022-11-30T03:57:59.095Z,1023.03
2022-11-30T03:58:57.492Z,1023.03
2022-11-30T03:59:57.789Z,1023.08
2022-11-30T04:00:59.985Z,1023.05
2022-11-30T04:02:00.230Z,1023.11
2022-11-30T04:02:58.634Z,1023.15
2022-11-30T04:03:58.931Z,1023.18
2022-11-30T04:04:59.245Z,1023.13
2022-11-30T04:06:01.420Z,1023.17
2022-11-30T04:06:59.813Z,1023.14
2022-11-30T04:08:02.006Z,1023.18
2022-11-30T04:09:00.386Z,1023.19
2022-11-30T04:10:05.250Z,1023.17
2022-11-30T04:11:03.875Z,1023.19
2022-11-30T04:12:02.287Z,1023.24
2022-11-30T04:13:03.509Z,1023.24
2022-11-30T04:14:03.692Z,1023.20
2022-11-30T04:15:03.892Z,1023.20
2022-11-30T04:16:04.136Z,1023.25
2022-11-30T04:17:04.268Z,1023.26
2022-11-30T04:18:02.892Z,1023.29
2022-11-30T04:19:03.197Z,1023.32
2022-11-30T04:20:03.509Z,1023.30
2022-11-30T04:21:03.820Z,1023.36
2022-11-30T04:22:06.007Z,1023.37
2022-11-30T04:23:04.394Z,1023.32
2022-11-30T04:24:06.615Z,1023.39
2022-11-30T04:25:06.777Z,1023.43
2022-11-30T04:26:06.974Z,1023.45
2022-11-30T04:27:07.215Z,1023.45
2022-11-30T04:28:07.846Z,1023.49
2022-11-30T04:29:08.046Z,1023.50
2022-11-30T04:30:06.435Z,1023.51
2022-11-30T04:31:08.694Z,1023.53
2022-11-30T04:32:08.926Z,1023.48
2022-11-30T04:33:09.023Z,1023.50
2022-11-30T04:34:09.214Z,1023.45
2022-11-30T04:35:09.381Z,1023.49
2022-11-30T04:36:10.071Z,1023.49
2022-11-30T04:37:10.269Z,1023.45
2022-11-30T04:38:10.466Z,1023.50
2022-11-30T04:39:10.653Z,1023.48
2022-11-30T04:40:09.413Z,1023.48
2022-11-30T04:41:11.639Z,1023.50
2022-11-30T04:42:11.798Z,1023.50
2022-11-30T04:43:10.310Z,1023.50
2022-11-30T04:44:10.668Z,1023.50
2022-11-30T04:45:10.853Z,1023.49
2022-11-30T04:46:13.069Z,1023.48
2022-11-30T04:47:11.479Z,1023.54
2022-11-30T04:48:11.674Z,1023.56
2022-11-30T04:49:11.973Z,1023.58
2022-11-30T04:50:12.285Z,1023.67
2022-11-30T04:51:14.455Z,1023.62
2022-11-30T04:52:14.649Z,1023.64
2022-11-30T04:53:13.166Z,1023.59
2022-11-30T04:54:15.348Z,1023.59
2022-11-30T04:55:15.540Z,1023.67
2022-11-30T04:56:15.729Z,1023.69
2022-11-30T04:57:15.914Z,1023.65
2022-11-30T04:58:16.597Z,1023.64
2022-11-30T04:59:16.793Z,1023.61
2022-11-30T05:00:16.986Z,1023.63
2022-11-30T05:01:17.257Z,1023.62
2022-11-30T05:02:17.846Z,1023.64
2022-11-30T05:03:18.049Z,1023.58
2022-11-30T05:04:16.448Z,1023.61
2022-11-30T05:05:18.610Z,1023.61
2022-11-30T05:06:18.828Z,1023.58
2022-11-30T05:07:19.034Z,1023.64
2022-11-30T05:08:19.239Z,1023.63
2022-11-30T05:09:19.931Z,1023.62
2022-11-30T05:10:18.460Z,1023.63
2022-11-30T05:11:22.020Z,1023.65
2022-11-30T05:12:18.930Z,1023.65
2022-11-30T05:13:21.132Z,1023.65
2022-11-30T05:14:20.484Z,1023.65
2022-11-30T05:15:19.861Z,1023.63
2022-11-30T05:16:22.171Z,1023.64
2022-11-30T05:17:20.436Z,1023.68
2022-11-30T05:18:20.741Z,1023.61
2022-11-30T05:19:21.055Z,1023.63
2022-11-30T05:20:21.352Z,1023.65
2022-11-30T05:21:23.559Z,1023.66
2022-11-30T05:22:21.941Z,1023.65
2022-11-30T05:23:24.135Z,1023.62
2022-11-30T05:24:22.511Z,1023.65
2022-11-30T05:25:22.835Z,1023.65
2022-11-30T05:26:23.137Z,1023.68
2022-11-30T05:27:25.330Z,1023.66
2022-11-30T05:28:25.517Z,1023.67
2022-11-30T05:29:24.039Z,1023.67
2022-11-30T05:30:24.341Z,1023.67
2022-11-30T05:31:25.685Z,1023.61
2022-11-30T05:32:24.908Z,1023.65
2022-11-30T05:33:25.225Z,1023.64
2022-11-30T05:34:25.531Z,1023.63
2022-11-30T05:35:25.842Z,1023.65
2022-11-30T05:36:26.152Z,1023.65
2022-11-30T05:37:28.337Z,1023.69
2022-11-30T05:38:28.523Z,1023.70
2022-11-30T05:39:27.039Z,1023.71
2022-11-30T05:40:27.351Z,1023.72
2022-11-30T05:41:28.658Z,1023.72
2022-11-30T05:42:29.837Z,1023.70
2022-11-30T05:43:28.433Z,1023.69
2022-11-30T05:44:28.452Z,1023.73
2022-11-30T05:45:29.786Z,1023.72
2022-11-30T05:46:29.130Z,1023.70
2022-11-30T05:47:31.216Z,1023.77
2022-11-30T05:48:29.601Z,1023.72
2022-11-30T05:49:29.909Z,1023.80
2022-11-30T05:50:30.279Z,1023.80
2022-11-30T05:51:31.462Z,1023.82
2022-11-30T05:52:32.640Z,1023.83
2022-11-30T05:53:31.030Z,1023.83
2022-11-30T05:54:31.332Z,1023.85
2022-11-30T05:55:33.531Z,1023.89
2022-11-30T05:56:31.916Z,1023.89
2022-11-30T05:57:34.104Z,1023.93
2022-11-30T05:58:32.482Z,1023.89
2022-11-30T05:59:32.805Z,1023.93
2022-11-30T06:00:33.107Z,1023.92
2022-11-30T06:01:36.330Z,1023.91
2022-11-30T06:02:33.819Z,1023.96
2022-11-30T06:03:33.993Z,1023.96
2022-11-30T06:04:34.303Z,1023.92
2022-11-30T06:05:34.614Z,1023.93
2022-11-30T06:06:35.369Z,1023.93
2022-11-30T06:07:37.107Z,1023.96
2022-11-30T06:08:37.242Z,1023.92
2022-11-30T06:09:37.582Z,1023.93
2022-11-30T06:10:37.543Z,1023.91
2022-11-30T06:11:38.225Z,1023.97
2022-11-30T06:12:36.615Z,1024.00
2022-11-30T06:13:38.907Z,1023.97
2022-11-30T06:14:38.983Z,1023.98
2022-11-30T06:15:39.397Z,1023.97
2022-11-30T06:16:39.456Z,1023.99
2022-11-30T06:17:40.071Z,1024.00
2022-11-30T06:18:38.327Z,1023.99
2022-11-30T06:19:38.645Z,1024.00
2022-11-30T06:20:38.940Z,1024.04
2022-11-30T06:21:41.120Z,1024.01
2022-11-30T06:22:39.506Z,1024.04
